Time;durP1;ratioP1;P1;durP2;ratioP2;P2;SDS_P1;SDS_P2;PMS_P1;PMS_P2;Temp;Humidity;BMP_temperature;BMP_pressure;BME280_temperature;BME280_humidity;BME280_pressure;Samples;Min_cycle;Max_cycle;Signal;HPM_P1;HPM_P2
2022/07/13 00:01:31;;;;;;;8.23;3.15;;;;;;;18.12;100.00;98712.72;5108950;28;20027;-96
2022/07/13 00:03:57;;;;;;;9.27;2.72;;;;;;;18.02;100.00;98717.50;5127960;27;20030;-96
2022/07/13 00:06:23;;;;;;;7.35;3.13;;;;;;;18.05;100.00;98705.06;5101290;28;20028;-96
2022/07/13 00:08:48;;;;;;;8.27;2.92;;;;;;;17.63;100.00;98712.84;5091273;28;20024;-96
2022/07/13 00:11:14;;;;;;;8.52;3.10;;;;;;;17.45;100.00;98709.13;5093783;28;20027;-96
2022/07/13 00:13:40;;;;;;;7.55;3.05;;;;;;;17.50;100.00;98715.97;5094224;28;20043;-96
2022/07/13 00:16:09;;;;;;;8.27;2.90;;;;;;;17.62;100.00;98721.66;5082643;28;20024;-96
2022/07/13 00:18:34;;;;;;;11.82;3.00;;;;;;;17.55;100.00;98719.28;5089168;28;20471;-95
2022/07/13 00:21:00;;;;;;;8.98;2.92;;;;;;;17.75;100.00;98723.78;5087307;28;20042;-96
2022/07/13 00:23:25;;;;;;;7.38;2.90;;;;;;;17.73;100.00;98709.81;5083963;28;20161;-96
2022/07/13 00:25:51;;;;;;;9.93;3.25;;;;;;;17.79;100.00;98710.50;5083184;28;20035;-96
2022/07/13 00:28:16;;;;;;;9.63;2.78;;;;;;;17.83;100.00;98710.31;5085272;28;20040;-96
2022/07/13 00:30:42;;;;;;;7.68;2.78;;;;;;;17.75;100.00;98704.47;5092580;28;20023;-95
2022/07/13 00:33:08;;;;;;;7.72;2.70;;;;;;;17.88;100.00;98724.19;5087975;28;20042;-96
2022/07/13 00:35:34;;;;;;;6.60;2.70;;;;;;;17.94;100.00;98723.09;5083762;28;20098;-96
2022/07/13 00:38:00;;;;;;;7.30;2.90;;;;;;;18.07;100.00;98723.47;5083684;27;20073;-96
2022/07/13 00:40:26;;;;;;;7.88;2.47;;;;;;;17.99;100.00;98725.56;5085089;27;20043;-96
2022/07/13 00:42:52;;;;;;;8.38;2.80;;;;;;;18.02;100.00;98717.50;5083892;28;20054;-96
2022/07/13 00:45:18;;;;;;;8.55;3.38;;;;;;;18.05;100.00;98720.00;5090999;27;20020;-96
2022/07/13 00:47:47;;;;;;;8.57;2.70;;;;;;;18.11;100.00;98718.91;5090344;27;21969;-96
2022/07/13 00:50:12;;;;;;;7.50;3.10;;;;;;;17.99;100.00;98726.41;5086549;27;20054;-96
2022/07/13 00:52:38;;;;;;;7.75;2.90;;;;;;;17.91;100.00;98717.94;5084882;27;20765;-96
2022/07/13 00:55:07;;;;;;;7.68;2.90;;;;;;;18.24;100.00;98730.69;5084574;28;20071;-96
2022/07/13 00:57:37;;;;;;;8.93;2.75;;;;;;;18.05;100.00;98742.00;5085679;28;20078;-96
2022/07/13 01:00:12;;;;;;;8.57;2.95;;;;;;;17.95;100.00;98734.50;5106510;27;20028;-96
2022/07/13 01:02:39;;;;;;;10.13;2.58;;;;;;;18.00;100.00;98722.00;5086804;27;20752;-96
2022/07/13 01:05:05;;;;;;;8.35;2.85;;;;;;;18.15;100.00;98724.03;5087406;28;20039;-96
2022/07/13 01:07:34;;;;;;;10.88;2.70;;;;;;;18.47;100.00;98723.59;5090814;27;20027;-95
2022/07/13 01:10:12;;;;;;;11.32;3.05;;;;;;;18.75;100.00;98733.88;5085446;27;20026;-95
2022/07/13 01:12:39;;;;;;;8.75;3.00;;;;;;;18.59;100.00;98728.38;5089242;28;20332;-96
2022/07/13 01:15:06;;;;;;;9.30;3.17;;;;;;;18.60;100.00;98730.09;5087589;27;20108;-96
2022/07/13 01:17:35;;;;;;;10.57;3.28;;;;;;;17.93;100.00;98726.66;5087434;28;20127;-96
2022/07/13 01:20:01;;;;;;;9.85;3.67;;;;;;;17.87;100.00;98733.00;5085308;28;20028;-96
2022/07/13 01:22:38;;;;;;;8.85;3.53;;;;;;;17.80;100.00;98739.44;5086366;28;20163;-96
2022/07/13 01:25:05;;;;;;;10.00;3.85;;;;;;;17.86;100.00;98733.06;5096025;27;20031;-96
2022/07/13 01:27:34;;;;;;;10.48;4.65;;;;;;;17.55;100.00;98728.94;5085127;28;20057;-96
2022/07/13 01:30:05;;;;;;;9.80;4.50;;;;;;;17.81;100.00;98745.56;5087904;28;20079;-96
2022/07/13 01:32:51;;;;;;;9.80;4.53;;;;;;;17.74;100.00;98740.53;5091841;27;20049;-96
2022/07/13 01:35:30;;;;;;;11.27;5.20;;;;;;;17.85;100.00;98742.75;5084758;28;20086;-96
2022/07/13 01:37:56;;;;;;;10.55;4.90;;;;;;;17.88;100.00;98733.84;5087614;28;20052;-95
2022/07/13 01:40:22;;;;;;;12.25;4.55;;;;;;;17.95;100.00;98742.44;5080143;27;20108;-96
2022/07/13 01:42:52;;;;;;;11.68;4.43;;;;;;;17.80;100.00;98747.38;5087899;27;20903;-96
2022/07/13 01:45:22;;;;;;;10.18;5.20;;;;;;;17.66;100.00;98732.06;5090870;27;20028;-96
2022/07/13 01:47:50;;;;;;;12.95;5.50;;;;;;;17.64;100.00;98744.44;5090940;27;20035;-96
2022/07/13 01:50:18;;;;;;;13.18;5.93;;;;;;;17.53;100.00;98739.56;5086883;28;20031;-96
2022/07/13 01:52:44;;;;;;;11.38;5.50;;;;;;;17.64;100.00;98728.63;5084309;28;20115;-96
2022/07/13 01:55:14;;;;;;;12.90;5.30;;;;;;;17.61;100.00;98741.91;5084014;28;20047;-95
2022/07/13 01:57:39;;;;;;;11.27;5.35;;;;;;;17.51;100.00;98738.78;5081425;28;20087;-96
2022/07/13 02:00:12;;;;;;;11.18;5.10;;;;;;;17.39;100.00;98728.69;5077953;28;20036;-95
2022/07/13 02:02:40;;;;;;;10.50;4.78;;;;;;;17.58;100.00;98736.78;5087341;28;20042;-96
2022/07/13 02:05:05;;;;;;;10.85;5.00;;;;;;;17.53;100.00;98738.72;5089945;27;20032;-95
2022/07/13 02:07:31;;;;;;;11.52;5.18;;;;;;;17.41;100.00;98729.47;5087819;28;20027;-96
2022/07/13 02:09:56;;;;;;;11.75;4.90;;;;;;;17.54;100.00;98738.66;5088761;28;20031;-96
2022/07/13 02:12:22;;;;;;;12.70;4.95;;;;;;;17.32;100.00;98740.38;5085130;28;20378;-96
2022/07/13 02:14:48;;;;;;;10.80;5.00;;;;;;;17.33;100.00;98745.59;5086832;27;20036;-96
2022/07/13 02:17:14;;;;;;;10.60;4.72;;;;;;;17.36;100.00;98739.34;5086574;28;20476;-96
2022/07/13 02:19:40;;;;;;;10.98;4.70;;;;;;;17.30;100.00;98732.53;5088193;28;20684;-96
2022/07/13 02:22:07;;;;;;;14.23;5.13;;;;;;;17.26;100.00;98738.84;5089196;28;20023;-95
2022/07/13 02:24:34;;;;;;;8.45;4.20;;;;;;;17.21;100.00;98738.97;5103938;27;20024;-95
2022/07/13 02:26:59;;;;;;;11.32;4.40;;;;;;;17.20;100.00;98732.00;5088946;28;20524;-95
2022/07/13 02:29:25;;;;;;;12.10;4.65;;;;;;;17.19;100.00;98735.56;5088882;28;20031;-96
2022/07/13 02:31:50;;;;;;;9.35;4.28;;;;;;;17.30;100.00;98736.91;5086498;28;20035;-96
2022/07/13 02:34:17;;;;;;;9.32;4.55;;;;;;;17.15;100.00;98722.56;5111347;28;20101;-96
2022/07/13 02:36:43;;;;;;;11.90;4.10;;;;;;;17.38;100.00;98730.47;5088597;28;20112;-96
2022/07/13 02:39:08;;;;;;;9.38;4.22;;;;;;;17.22;100.00;98731.94;5088132;28;20031;-96
2022/07/13 02:41:34;;;;;;;12.27;4.88;;;;;;;17.18;100.00;98736.47;5091164;28;20031;-96
2022/07/13 02:43:59;;;;;;;9.10;4.55;;;;;;;17.18;100.00;98730.34;5103460;28;20149;-96
2022/07/13 02:46:25;;;;;;;10.52;4.63;;;;;;;17.16;100.00;98737.44;5086437;28;20051;-96
2022/07/13 02:48:51;;;;;;;10.32;4.93;;;;;;;17.17;100.00;98747.91;5089791;28;20024;-96
2022/07/13 02:51:17;;;;;;;12.35;5.03;;;;;;;17.23;100.00;98746.84;5083321;28;20023;-96
2022/07/13 02:53:42;;;;;;;14.32;5.00;;;;;;;17.08;100.00;98743.00;5084283;28;20024;-96
2022/07/13 02:56:08;;;;;;;9.73;4.88;;;;;;;17.20;100.00;98749.56;5084745;28;20044;-96
2022/07/13 02:58:34;;;;;;;12.00;5.07;;;;;;;17.18;100.00;98751.44;5085087;28;20122;-95
2022/07/13 03:01:00;;;;;;;11.70;4.60;;;;;;;17.13;100.00;98756.88;5089495;28;20036;-96
2022/07/13 03:03:25;;;;;;;11.48;4.70;;;;;;;17.15;100.00;98754.19;5087159;28;20034;-96
2022/07/13 03:05:51;;;;;;;10.45;5.13;;;;;;;16.99;100.00;98751.22;5091040;28;20032;-96
2022/07/13 03:08:16;;;;;;;10.68;4.97;;;;;;;17.05;100.00;98748.38;5089022;28;20038;-96
2022/07/13 03:10:42;;;;;;;10.27;4.75;;;;;;;16.75;100.00;98750.28;5090217;28;20482;-96
2022/07/13 03:13:07;;;;;;;10.65;4.88;;;;;;;16.77;100.00;98754.59;5091605;28;20073;-96
2022/07/13 03:15:35;;;;;;;11.27;4.57;;;;;;;16.73;100.00;98756.44;5092104;28;20030;-96
2022/07/13 03:18:00;;;;;;;11.55;5.15;;;;;;;16.62;100.00;98755.06;5092477;28;20031;-96
2022/07/13 03:20:26;;;;;;;10.15;4.70;;;;;;;16.55;100.00;98755.28;5094612;28;20883;-95
2022/07/13 03:22:52;;;;;;;11.07;4.88;;;;;;;16.75;100.00;98760.81;5092070;28;20035;-96
2022/07/13 03:25:17;;;;;;;11.73;4.57;;;;;;;16.70;100.00;98763.56;5091486;28;20868;-95
2022/07/13 03:27:43;;;;;;;11.43;5.13;;;;;;;16.52;100.00;98767.69;5089167;28;20030;-96
2022/07/13 03:30:09;;;;;;;12.40;5.28;;;;;;;16.58;100.00;98764.88;5092757;28;20132;-96
2022/07/13 03:32:34;;;;;;;13.75;5.53;;;;;;;16.51;100.00;98771.25;5090143;28;20020;-96
2022/07/13 03:35:00;;;;;;;12.57;5.47;;;;;;;16.61;100.00;98770.03;5093729;28;20039;-96
2022/07/13 03:37:25;;;;;;;13.27;6.47;;;;;;;16.49;100.00;98757.25;5091612;28;20066;-96
2022/07/13 03:39:51;;;;;;;16.48;6.53;;;;;;;16.38;100.00;98762.88;5090043;28;20539;-96
2022/07/13 03:42:23;;;;;;;13.93;6.75;;;;;;;16.53;100.00;98767.66;5094669;28;20053;-96
2022/07/13 03:45:06;;;;;;;17.05;7.35;;;;;;;16.48;100.00;98777.47;5094585;28;20471;-96
2022/07/13 03:47:31;;;;;;;;;;;;;;;16.46;100.00;98783.69;5093682;28;20501;-95
2022/07/13 03:49:57;;;;;;;13.45;6.90;;;;;;;16.43;100.00;98787.28;5093811;28;19923;-96
2022/07/13 03:52:22;;;;;;;12.60;6.80;;;;;;;16.23;100.00;98779.16;5097490;28;20492;-96
2022/07/13 03:54:48;;;;;;;13.40;5.85;;;;;;;16.42;100.00;98780.28;5089561;28;20032;-95
2022/07/13 03:57:15;;;;;;;12.18;5.50;;;;;;;16.37;100.00;98776.97;5094176;28;20035;-95
2022/07/13 03:59:40;;;;;;;11.55;5.25;;;;;;;16.14;100.00;98770.66;5092947;28;20089;-96
2022/07/13 04:02:06;;;;;;;9.43;3.90;;;;;;;15.98;100.00;98780.81;5094736;28;20023;-96
2022/07/13 04:04:32;;;;;;;9.57;3.60;;;;;;;16.11;100.00;98778.66;5093728;28;20032;-96
2022/07/13 04:06:57;;;;;;;8.77;3.40;;;;;;;16.03;100.00;98781.53;5094794;28;20035;-96
2022/07/13 04:09:32;;;;;;;8.63;3.30;;;;;;;16.19;100.00;98781.91;5096020;28;20115;-96
2022/07/13 04:11:58;;;;;;;9.30;3.20;;;;;;;15.92;100.00;98778.38;5094403;28;21562;-96
2022/07/13 04:14:23;;;;;;;9.27;2.85;;;;;;;15.87;100.00;98777.66;5094513;28;20040;-96
2022/07/13 04:16:49;;;;;;;9.43;2.95;;;;;;;15.89;100.00;98781.06;5090097;28;20027;-96
2022/07/13 04:19:17;;;;;;;9.55;3.38;;;;;;;15.77;100.00;98791.94;5091975;28;20046;-96
2022/07/13 04:21:43;;;;;;;13.02;3.47;;;;;;;15.63;100.00;98785.31;5094768;28;20023;-95
2022/07/13 04:24:08;;;;;;;11.02;3.63;;;;;;;15.62;100.00;98786.22;5094981;28;20471;-96
2022/07/13 04:26:34;;;;;;;11.07;3.33;;;;;;;15.77;100.00;98791.94;5093367;28;20036;-95
2022/07/13 04:28:59;;;;;;;10.18;2.85;;;;;;;15.55;100.00;98784.69;5090690;28;20522;-96
2022/07/13 04:31:25;;;;;;;9.23;3.25;;;;;;;15.49;100.00;98797.97;5094415;28;20047;-96
2022/07/13 04:33:51;;;;;;;15.05;3.97;;;;;;;15.45;100.00;98789.34;5094027;27;20020;-96
2022/07/13 04:36:21;;;;;;;10.50;2.88;;;;;;;15.30;100.00;98803.75;5091221;28;20032;-96
2022/07/13 04:38:47;;;;;;;10.00;3.10;;;;;;;15.38;100.00;98821.06;5095004;28;20510;-96
2022/07/13 04:41:13;;;;;;;8.45;2.50;;;;;;;15.33;100.00;98816.81;5092279;28;20027;-95
2022/07/13 04:43:52;;;;;;;16.05;3.33;;;;;;;15.17;100.00;98818.13;5092262;27;20369;-96
2022/07/13 04:46:17;;;;;;;10.13;3.03;;;;;;;15.14;100.00;98836.59;5090985;28;20031;-94
2022/07/13 04:48:43;;;;;;;12.48;2.83;;;;;;;15.36;100.00;98822.00;5088440;28;20347;-95
2022/07/13 04:51:09;;;;;;;18.33;3.80;;;;;;;15.15;100.00;98818.16;5090133;28;20242;-96
2022/07/13 04:53:35;;;;;;;22.70;4.18;;;;;;;15.10;100.00;98817.44;5094826;28;20073;-95
2022/07/13 04:56:01;;;;;;;16.92;3.35;;;;;;;15.11;100.00;98813.06;5095528;28;20058;-95
2022/07/13 04:58:26;;;;;;;14.98;3.30;;;;;;;14.76;100.00;98820.09;5090814;28;20113;-95
2022/07/13 05:00:52;;;;;;;16.50;3.30;;;;;;;14.75;100.00;98831.47;5093261;28;20026;-96
2022/07/13 05:03:17;;;;;;;18.70;3.75;;;;;;;14.78;100.00;98824.41;5095167;28;20547;-95
2022/07/13 05:05:44;;;;;;;17.05;4.05;;;;;;;14.88;100.00;98827.66;5093512;28;20046;-96
2022/07/13 05:08:11;;;;;;;15.93;3.63;;;;;;;14.78;100.00;98815.63;5091340;28;20111;-96
2022/07/13 05:10:37;;;;;;;18.38;3.80;;;;;;;14.60;100.00;98828.31;5095176;28;20020;-96
2022/07/13 05:13:02;;;;;;;17.30;3.85;;;;;;;14.59;100.00;98842.31;5094591;28;20053;-96
2022/07/13 05:15:28;;;;;;;16.52;3.00;;;;;;;14.80;100.00;98840.09;5086988;28;20081;-95
2022/07/13 05:17:53;;;;;;;18.65;3.75;;;;;;;14.60;100.00;98832.66;5092107;28;20066;-95
2022/07/13 05:20:19;;;;;;;16.45;3.65;;;;;;;14.52;100.00;98841.59;5089529;28;20127;-95
2022/07/13 05:22:44;;;;;;;15.70;3.05;;;;;;;14.56;100.00;98834.53;5092531;28;20372;-95
2022/07/13 05:25:10;;;;;;;13.68;3.13;;;;;;;14.68;100.00;98844.75;5093450;28;20016;-96
2022/07/13 05:27:37;;;;;;;18.80;3.10;;;;;;;14.48;100.00;98844.34;5097183;28;20024;-96
2022/07/13 05:30:03;;;;;;;18.63;4.13;;;;;;;14.39;100.00;98832.31;5094120;28;20032;-96
2022/07/13 05:32:29;;;;;;;19.27;3.45;;;;;;;14.39;100.00;98834.06;5094819;28;20118;-96
2022/07/13 05:34:55;;;;;;;15.82;3.03;;;;;;;14.37;100.00;98838.50;5092407;28;20028;-96
2022/07/13 05:37:20;;;;;;;15.13;3.30;;;;;;;14.29;100.00;98839.53;5096113;28;20590;-95
2022/07/13 05:39:46;;;;;;;13.82;2.50;;;;;;;14.58;100.00;98842.38;5096168;28;20089;-96
2022/07/13 05:42:13;;;;;;;13.63;2.63;;;;;;;14.25;100.00;98845.75;5094883;28;20031;-96
2022/07/13 05:44:39;;;;;;;10.75;2.72;;;;;;;14.72;100.00;98842.91;5095117;28;20091;-96
2022/07/13 05:47:04;;;;;;;13.15;2.67;;;;;;;14.33;100.00;98840.31;5095021;28;20054;-96
2022/07/13 05:49:30;;;;;;;19.88;3.25;;;;;;;14.31;100.00;98853.47;5093923;28;20132;-96
2022/07/13 05:51:55;;;;;;;14.80;2.30;;;;;;;15.55;100.00;98826.75;5094789;28;20031;-96
2022/07/13 05:54:44;;;;;;;10.82;2.25;;;;;;;14.28;100.00;98845.66;5093678;28;20439;-96
2022/07/13 05:57:10;;;;;;;14.55;2.78;;;;;;;14.16;100.00;98843.31;5094484;28;20122;-96
2022/07/13 05:59:36;;;;;;;14.32;2.40;;;;;;;14.17;100.00;98856.41;5093186;28;20490;-96
2022/07/13 06:02:02;;;;;;;13.30;2.63;;;;;;;14.18;100.00;98849.38;5094799;28;20035;-96
2022/07/13 06:04:33;;;;;;;10.82;1.83;;;;;;;14.06;100.00;98860.16;5099052;28;20027;-96
2022/07/13 06:06:59;;;;;;;11.32;1.90;;;;;;;14.34;100.00;98848.13;5093698;28;20088;-96
2022/07/13 06:09:25;;;;;;;11.52;2.20;;;;;;;14.41;100.00;98858.50;5096309;28;21881;-96
2022/07/13 06:11:50;;;;;;;7.82;1.58;;;;;;;14.15;100.00;98866.06;5103085;28;21068;-96
2022/07/13 06:14:19;;;;;;;11.75;1.90;;;;;;;14.38;100.00;98869.03;5094172;28;20438;-96
2022/07/13 06:16:44;;;;;;;11.18;2.17;;;;;;;14.13;100.00;98865.22;5095678;28;20028;-96
2022/07/13 06:19:13;;;;;;;10.48;2.25;;;;;;;13.80;100.00;98861.56;5100831;28;20349;-96
2022/07/13 06:21:39;;;;;;;10.27;2.15;;;;;;;13.97;100.00;98872.56;5094340;28;20042;-96
2022/07/13 06:24:05;;;;;;;12.98;2.10;;;;;;;14.24;100.00;98880.72;5089360;28;20114;-96
2022/07/13 06:26:31;;;;;;;10.27;2.10;;;;;;;14.16;100.00;98870.41;5090448;28;20063;-96
2022/07/13 06:28:56;;;;;;;10.45;2.05;;;;;;;14.18;100.00;98865.13;5092743;28;20028;-96
2022/07/13 06:31:22;;;;;;;10.70;1.98;;;;;;;14.40;100.00;98877.75;5094429;28;20065;-96
2022/07/13 06:33:51;;;;;;;9.73;1.90;;;;;;;14.33;100.00;98864.81;5091081;28;20496;-96
2022/07/13 06:36:22;;;;;;;11.27;1.85;;;;;;;14.02;100.00;98851.47;5095184;28;20020;-96
2022/07/13 06:38:49;;;;;;;9.02;2.10;;;;;;;14.17;100.00;98847.69;5096018;28;20479;-96
2022/07/13 06:41:15;;;;;;;9.90;1.95;;;;;;;14.28;100.00;98852.66;5090909;28;20038;-96
2022/07/13 06:43:41;;;;;;;12.18;1.70;;;;;;;14.40;100.00;98856.78;5094421;28;20127;-96
2022/07/13 06:46:15;;;;;;;10.77;1.88;;;;;;;14.44;100.00;98866.31;5096330;28;20119;-96
2022/07/13 06:48:41;;;;;;;8.80;2.15;;;;;;;14.50;100.00;98863.53;5093066;28;20081;-96
2022/07/13 06:51:07;;;;;;;10.50;1.88;;;;;;;14.29;100.00;98854.38;5097801;28;20033;-96
2022/07/13 06:53:33;;;;;;;8.82;1.80;;;;;;;14.57;100.00;98864.25;5094798;28;20040;-96
2022/07/13 06:55:58;;;;;;;8.80;1.45;;;;;;;14.18;100.00;98852.00;5104449;28;20051;-96
2022/07/13 06:58:25;;;;;;;8.90;1.50;;;;;;;14.27;100.00;98871.94;5103184;28;20046;-96
2022/07/13 07:00:57;;;;;;;8.65;1.40;;;;;;;14.15;100.00;98866.06;5089793;22;20049;-94
2022/07/13 07:03:52;;;;;;;6.18;1.30;;;;;;;14.26;100.00;98865.81;5056040;28;20042;-95
2022/07/13 07:06:24;;;;;;;6.70;1.20;;;;;;;13.96;100.00;98852.47;5061025;28;20103;-94
2022/07/13 07:08:49;;;;;;;6.38;1.30;;;;;;;14.24;100.00;98862.38;5082567;28;20936;-94
2022/07/13 07:11:15;;;;;;;7.00;1.35;;;;;;;14.40;100.00;98854.16;5064776;28;20127;-92
2022/07/13 07:13:40;;;;;;;5.25;1.10;;;;;;;14.36;100.00;98850.72;5068363;28;20057;-92
2022/07/13 07:16:51;;;;;;;6.13;1.10;;;;;;;14.21;100.00;98865.06;5070733;28;20036;-92
2022/07/13 07:19:20;;;;;;;7.50;1.17;;;;;;;14.12;100.00;98873.13;5072553;28;20020;-94
2022/07/13 07:21:45;;;;;;;6.70;1.33;;;;;;;14.26;100.00;98872.81;5067811;28;20020;-91
2022/07/13 07:24:11;;;;;;;9.10;1.30;;;;;;;14.20;100.00;98891.34;5071747;28;20039;-93
2022/07/13 07:26:36;;;;;;;7.60;1.30;;;;;;;14.17;100.00;98892.25;5069796;28;20083;-93
2022/07/13 07:29:02;;;;;;;5.57;1.33;;;;;;;14.79;100.00;98875.13;5071900;28;20055;-94
2022/07/13 07:31:28;;;;;;;6.55;1.20;;;;;;;14.61;100.00;98872.03;5073077;28;20039;-93
2022/07/13 07:33:54;;;;;;;5.78;1.25;;;;;;;14.41;100.00;98876.88;5068028;28;20500;-93
2022/07/13 07:36:19;;;;;;;6.82;1.15;;;;;;;14.36;100.00;98860.38;5068038;28;20032;-94
2022/07/13 07:38:45;;;;;;;7.40;1.30;;;;;;;14.76;100.00;98865.56;5068785;28;20070;-94
2022/07/13 07:41:11;;;;;;;9.50;1.40;;;;;;;14.60;100.00;98859.81;5071906;28;20045;-94
2022/07/13 07:43:46;;;;;;;5.95;1.27;;;;;;;14.57;100.00;98859.88;4996251;28;20449;-95
2022/07/13 07:46:12;;;;;;;8.50;1.30;;;;;;;14.65;100.00;98855.31;5023526;28;20033;-96
2022/07/13 07:48:38;;;;;;;7.57;1.40;;;;;;;14.57;100.00;98848.50;5032532;28;20029;-96
2022/07/13 07:51:05;;;;;;;5.25;1.20;;;;;;;14.48;100.00;98839.94;5031258;28;20025;-93
2022/07/13 07:53:34;;;;;;;7.90;1.30;;;;;;;14.58;100.00;98856.34;5018781;28;20044;-93
2022/07/13 07:56:01;;;;;;;9.85;1.63;;;;;;;14.68;100.00;98855.25;5032224;28;20044;-93
2022/07/13 07:58:26;;;;;;;5.25;1.30;;;;;;;14.87;100.00;98854.81;5031173;28;20045;-95
2022/07/13 08:00:52;;;;;;;6.30;1.20;;;;;;;14.86;100.00;98863.56;5032297;28;20045;-95
2022/07/13 08:03:21;;;;;;;6.32;1.40;;;;;;;14.93;100.00;98859.88;5049146;28;20030;-96
2022/07/13 08:05:51;;;;;;;8.18;1.05;;;;;;;14.99;100.00;98866.78;5053768;28;20071;-96
2022/07/13 08:08:19;;;;;;;5.25;1.02;;;;;;;14.88;100.00;98866.16;5044025;28;20466;-96
2022/07/13 08:11:06;;;;;;;8.50;1.55;;;;;;;14.81;100.00;98881.22;5042614;28;20051;-95
2022/07/13 08:13:34;;;;;;;6.93;1.30;;;;;;;14.66;100.00;98890.31;5051686;28;20696;-96
2022/07/13 08:16:02;;;;;;;7.75;1.15;;;;;;;14.72;100.00;98891.94;5048422;28;20138;-96
2022/07/13 08:18:28;;;;;;;6.57;1.20;;;;;;;15.14;100.00;98891.78;5048306;28;20037;-96
2022/07/13 08:20:56;;;;;;;6.25;1.35;;;;;;;15.19;100.00;98898.63;5053181;28;20032;-96
2022/07/13 08:26:08;;;;;;;6.18;1.10;;;;;;;15.32;100.00;98907.09;5054333;28;20095;-94
2022/07/13 08:28:34;;;;;;;5.55;1.00;;;;;;;14.98;100.00;98904.44;5050402;28;20044;-94
2022/07/13 08:30:59;;;;;;;6.32;1.23;;;;;;;14.81;100.00;98904.84;5051534;28;20024;-94
2022/07/13 08:38:54;;;;;;;6.45;1.10;;;;;;;15.41;100.00;98911.22;5040000;28;20051;-94
2022/07/13 08:41:20;;;;;;;4.07;0.93;;;;;;;15.29;100.00;98896.63;5043125;28;20035;-94
2022/07/13 08:43:46;;;;;;;5.53;1.00;;;;;;;15.27;100.00;98908.97;5046164;28;20028;-93
2022/07/13 08:46:11;;;;;;;8.20;1.38;;;;;;;15.69;100.00;98898.19;5068156;28;20106;-96
2022/07/13 08:48:44;;;;;;;7.00;1.10;;;;;;;15.51;100.00;98896.06;5042280;28;20061;-93
2022/07/13 08:51:09;;;;;;;6.23;1.13;;;;;;;15.52;100.00;98892.53;5044050;28;20065;-96
2022/07/13 08:53:35;;;;;;;8.68;1.45;;;;;;;15.71;100.00;98890.25;5041384;28;20313;-94
2022/07/13 08:56:01;;;;;;;7.50;1.10;;;;;;;15.78;100.00;98893.56;5037309;28;20168;-92
2022/07/13 08:58:27;;;;;;;8.02;1.20;;;;;;;15.77;100.00;98876.06;5046596;28;20048;-94
2022/07/13 09:00:52;;;;;;;7.95;1.35;;;;;;;15.90;100.00;98877.50;5048358;28;20044;-95
2022/07/13 09:03:18;;;;;;;8.25;1.40;;;;;;;16.28;100.00;98883.38;5047246;28;20104;-95
2022/07/13 09:05:49;;;;;;;6.60;1.30;;;;;;;15.98;100.00;98896.53;5051180;28;20477;-92
2022/07/13 09:08:22;;;;;;;5.75;1.20;;;;;;;16.08;100.00;98891.88;5054820;28;20028;-95
2022/07/13 09:11:01;;;;;;;5.97;1.23;;;;;;;16.43;100.00;98892.56;5053553;28;20071;-95
2022/07/13 09:13:34;;;;;;;6.53;1.40;;;;;;;16.36;100.00;98891.91;5070281;28;20079;-94
2022/07/13 09:16:24;;;;;;;8.82;1.50;;;;;;;16.28;100.00;98901.78;5059597;28;20078;-93
2022/07/13 09:19:04;;;;;;;5.93;1.38;;;;;;;16.27;100.00;98876.41;5056214;28;20062;-95
2022/07/13 09:21:35;;;;;;;6.65;1.63;;;;;;;16.48;100.00;98880.16;5056300;28;20838;-94
2022/07/13 09:24:14;;;;;;;8.90;1.50;;;;;;;16.32;100.00;98890.25;5050216;28;20045;-93
2022/07/13 09:26:46;;;;;;;6.85;1.50;;;;;;;16.83;100.00;98898.38;5041771;28;20029;-95
2022/07/13 09:29:17;;;;;;;10.02;1.60;;;;;;;16.73;100.00;98892.53;5040515;28;20619;-96
2022/07/13 09:31:54;;;;;;;7.38;1.50;;;;;;;16.89;100.00;98903.47;5045778;28;20033;-93
2022/07/13 09:34:46;;;;;;;12.77;1.95;;;;;;;17.08;100.00;98889.66;5036197;28;20378;-96
2022/07/13 09:37:14;;;;;;;8.95;1.73;;;;;;;16.96;100.00;98897.06;5042628;28;20037;-94
2022/07/13 09:39:59;;;;;;;7.90;1.95;;;;;;;17.22;100.00;98912.03;5041698;28;20037;-93
2022/07/13 09:42:31;;;;;;;6.95;1.70;;;;;;;17.09;100.00;98902.81;5041590;28;20029;-92
2022/07/13 09:47:53;;;;;;;7.68;1.60;;;;;;;17.29;100.00;98914.47;5049707;28;20032;-95
2022/07/13 09:50:20;;;;;;;8.07;1.90;;;;;;;17.00;100.00;98918.94;5052827;28;20037;-95
2022/07/13 09:53:23;;;;;;;11.18;1.95;;;;;;;17.37;100.00;98912.44;5061477;28;20029;-96
2022/07/13 09:55:51;;;;;;;10.17;2.10;;;;;;;17.25;100.00;98911.06;5055038;28;20021;-96
2022/07/13 09:58:23;;;;;;;8.82;2.13;;;;;;;17.44;100.00;98913.06;5059227;28;20123;-96
2022/07/13 10:01:02;;;;;;;9.48;2.35;;;;;;;17.54;100.00;98906.56;5057969;28;20041;-96
2022/07/13 10:03:31;;;;;;;9.02;2.40;;;;;;;17.91;100.00;98903.50;5058997;28;20063;-96
2022/07/13 10:06:00;;;;;;;7.68;1.90;;;;;;;18.00;100.00;98915.47;5069370;28;20048;-96
2022/07/13 10:08:26;;;;;;;8.55;2.22;;;;;;;17.88;100.00;98921.16;5051170;22;20076;-93
2022/07/13 10:10:55;;;;;;;11.02;2.78;;;;;;;18.20;100.00;98927.06;5022720;28;20044;-92
2022/07/13 10:13:21;;;;;;;10.27;2.53;;;;;;;18.36;100.00;98922.94;5020417;28;20033;-92
2022/07/13 10:15:47;;;;;;;10.35;2.30;;;;;;;18.17;100.00;98927.19;5025348;28;20021;-92
2022/07/13 10:18:21;;;;;;;11.07;2.67;;;;;;;18.65;100.00;98923.59;5009831;28;20751;-92
2022/07/13 10:21:48;;;;;;;9.45;2.80;;;;;;;19.55;100.00;98935.81;5021543;28;20029;-92
2022/07/13 10:24:19;;;;;;;8.57;2.58;;;;;;;19.48;100.00;98940.50;4932384;28;20039;-93
2022/07/13 10:26:49;;;;;;;9.20;2.53;;;;;;;19.38;100.00;98942.69;4935947;28;20658;-92
2022/07/13 10:29:15;;;;;;;11.57;2.17;;;;;;;19.73;100.00;98939.44;4933881;29;20047;-92
2022/07/13 10:31:42;;;;;;;9.73;2.30;;;;;;;19.56;100.00;98943.69;4948835;28;20091;-92
2022/07/13 10:34:10;;;;;;;10.43;2.58;;;;;;;19.94;100.00;98949.13;4949210;28;20038;-92
2022/07/13 10:36:49;;;;;;;9.90;2.45;;;;;;;20.08;100.00;98950.28;4932358;29;20067;-94
2022/07/13 10:39:15;;;;;;;9.95;2.72;;;;;;;20.43;100.00;98937.22;4944747;28;20035;-93
2022/07/13 10:42:02;;;;;;;7.30;2.13;;;;;;;19.49;100.00;98955.44;4933921;29;20114;-92
2022/07/13 10:44:41;;;;;;;9.18;2.20;;;;;;;20.52;99.83;98941.25;4932212;28;20944;-93
2022/07/13 10:47:12;;;;;;;7.35;2.20;;;;;;;21.05;94.88;98943.13;4945634;28;20487;-92
2022/07/13 10:49:47;;;;;;;9.23;2.40;;;;;;;21.28;100.00;98947.28;4928990;29;20041;-92
2022/07/13 10:52:19;;;;;;;9.93;2.20;;;;;;;20.41;100.00;98947.03;4946048;28;20034;-92
2022/07/13 10:55:03;;;;;;;10.70;2.30;;;;;;;19.54;100.00;98953.47;4930542;29;20084;-92
2022/07/13 10:57:32;;;;;;;9.70;2.47;;;;;;;20.80;100.00;98940.81;4934076;28;20049;-92
2022/07/13 11:00:19;;;;;;;8.65;2.30;;;;;;;20.08;100.00;98950.28;4974667;28;20039;-92
2022/07/13 11:02:55;;;;;;;9.57;2.25;;;;;;;20.37;100.00;98945.47;5021761;28;20060;-92
2022/07/13 11:05:30;;;;;;;9.45;2.20;;;;;;;20.05;100.00;98953.94;5023333;28;20465;-93
2022/07/13 11:07:56;;;;;;;9.05;2.22;;;;;;;19.86;97.30;98945.97;5012934;28;20571;-91
2022/07/13 11:10:30;;;;;;;10.27;2.33;;;;;;;20.66;89.54;98952.03;5018724;28;20088;-92
2022/07/13 11:13:09;;;;;;;9.57;2.30;;;;;;;20.12;98.56;98951.88;5021180;28;20032;-92
2022/07/13 11:15:46;;;;;;;8.95;2.50;;;;;;;20.07;100.00;98952.09;5025694;28;20068;-93
2022/07/13 11:18:31;;;;;;;8.15;1.85;;;;;;;20.77;99.50;98947.13;5015167;28;20034;-94
2022/07/13 11:21:00;;;;;;;7.82;2.05;;;;;;;20.51;99.00;98947.47;5020458;28;20080;-93
2022/07/13 11:26:39;;;;;;;11.07;2.55;;;;;;;20.22;100.00;98953.19;5022059;28;20087;-94
2022/07/13 11:29:32;;;;;;;9.02;2.00;;;;;;;20.40;99.26;98961.19;4957298;28;20057;-92
2022/07/13 11:32:00;;;;;;;8.48;1.90;;;;;;;20.23;100.00;98951.38;4981508;28;20041;-92
2022/07/13 11:34:27;;;;;;;7.53;2.00;;;;;;;19.67;98.17;98963.53;4964779;28;20033;-93
2022/07/13 11:36:55;;;;;;;8.13;2.38;;;;;;;19.64;92.22;98964.53;4982306;28;20038;-92
2022/07/13 11:39:26;;;;;;;8.90;1.90;;;;;;;21.01;88.46;98956.63;4968300;28;20026;-92
2022/07/13 11:41:53;;;;;;;7.63;1.75;;;;;;;21.19;79.80;98961.00;4981280;28;20042;-93
2022/07/13 11:44:25;;;;;;;6.28;1.90;;;;;;;21.09;79.80;98971.22;4964792;28;20699;-92